Abakan Airport
UNAA : now visible

Airfield :











YOU CAN JOIN US ON...

 
LOGIN :

Register | Disclaimer

   EN    FR    IT 

 









Legend :    VFR   Marginal VFR   IFR   Intensive IFR   Very Intensive IFR
Visi :
Ceiling :
>= 8 km
>= 3000ft
5 to 8 km
1000 to 3000 ft
1500m to 5 km
500 to 1000 ft
800 to 1500m
200 to 500 ft
< 800m
< 200 ft
Symbols :   Thunderstorms  Fog  Heavy snow  Heavy precipitations  Wind > 20 kt






- Airport Elevation : 831 ft
- IATA code : ABA


UNAA - Abakan

CURRENT METAR :
  • 021600Z 22004MPS CAVOK 22/17 Q1005 R20/090065 TEMPO 25010G15MPS 5000 -TSRA SCT025CB RMK QFE731

EXPIRED METARs :
  • 021530Z 20004MPS CAVOK 22/17 Q1004 R20/090065 NOSIG RMK QFE731
  • 021500Z 20003MPS CAVOK 23/17 Q1004 R20/090065 NOSIG RMK QFE731
  • 021430Z 25002MPS CAVOK 25/21 Q1004 R20/090065 NOSIG RMK QFE731
  • 021400Z 21002MPS CAVOK 25/20 Q1004 R02/090065 NOSIG RMK QFE730
  • 021330Z 21005MPS CAVOK 26/21 Q1004 R02/090065 NOSIG RMK QFE730

TAF TAF UNAA
Valid from the 02 at 15:00 until the 03 at 15:00 UTC


021355Z 0215/0315 21003G10MPS 9999 SCT025CB
TEMPO 0215/0221 27007G20MPS 2100 -TSGRRA FEW005 BKN016CB
FM022100 35003G10MPS 9999 -SHRA SCT025CB
TEMPO 0221/0312 23007G17MPS 5000 -TSRA
UNKL FIR / Asia



MET'MAP, your aeronautical weather chart ! - Copyright ORBIFLY December 2007 - Disclaimer

ORBIFLY MET'MAP TEAM :

Programming & Development : Alexandra Zaïnal
Concept & original design : Baudouin d'Aumeries
Assistance for programming : Marc-Olivier Méhu
Technical & hardware support : Manuel Goepfert

Contact : metmap@orbifly.com




SOURCES & CREDITS :

   NOAA       Earth
Advisory